Time;durP1;ratioP1;P1;durP2;ratioP2;P2;SDS_P1;SDS_P2;PMS_P1;PMS_P2;Temp;Humidity;BMP_temperature;BMP_pressure;BME280_temperature;BME280_humidity;BME280_pressure;Samples;Min_cycle;Max_cycle;Signal;HPM_P1;HPM_P2
2023/10/05 00:01:45;;;;;;;9.45;4.72;;;;;;;;;;4956179;28;20045;-78
2023/10/05 00:04:15;;;;;;;8.80;4.22;;;;;;;;;;4945960;28;20031;-77
2023/10/05 00:06:42;;;;;;;9.75;4.55;;;;;;;;;;4939212;28;20961;-77
2023/10/05 00:09:12;;;;;;;11.20;4.90;;;;;;;;;;4938684;28;20038;-77
2023/10/05 00:11:38;;;;;;;10.68;4.82;;;;;;;;;;4974136;28;20078;-77
2023/10/05 00:14:07;;;;;;;18.45;5.28;;;;;;;;;;4956866;28;20472;-77
2023/10/05 00:16:39;;;;;;;9.77;4.63;;;;;;;;;;4960474;28;20131;-77
2023/10/05 00:21:36;;;;;;;11.18;4.60;;;;;;;;;;4955665;28;20684;-77
2023/10/05 00:24:08;;;;;;;12.65;4.63;;;;;;;;;;4974618;28;20038;-77
2023/10/05 00:26:36;;;;;;;8.82;4.38;;;;;;;;;;4941027;28;20138;-77
2023/10/05 00:31:44;;;;;;;8.68;4.18;;;;;;;;;;4958938;28;20050;-77
2023/10/05 00:34:13;;;;;;;10.00;4.53;;;;;;;;;;4957313;28;20046;-77
2023/10/05 00:36:43;;;;;;;11.38;4.35;;;;;;;;;;4977515;28;20130;-77
2023/10/05 00:39:09;;;;;;;10.70;4.50;;;;;;;;;;4959026;28;20491;-77
2023/10/05 00:41:35;;;;;;;11.20;4.32;;;;;;;;;;4964770;28;20109;-77
2023/10/05 00:44:01;;;;;;;10.85;4.38;;;;;;;;;;4948894;28;20495;-77
2023/10/05 00:46:27;;;;;;;10.95;4.15;;;;;;;;;;4959057;28;20046;-77
2023/10/05 00:49:41;;;;;;;13.38;4.43;;;;;;;;;;4944218;28;20487;-77
2023/10/05 00:51:44;;;;;;;10.65;4.35;;;;;;;;;;4946833;28;20054;-78
2023/10/05 00:54:18;;;;;;;8.95;4.25;;;;;;;;;;4957901;28;20173;-77
2023/10/05 00:56:45;;;;;;;11.90;4.05;;;;;;;;;;4964386;28;20057;-77
2023/10/05 00:59:20;;;;;;;10.93;4.32;;;;;;;;;;4940765;28;20031;-77
2023/10/05 01:04:28;;;;;;;11.38;4.72;;;;;;;;;;4958601;28;20158;-77
2023/10/05 01:07:07;;;;;;;11.75;4.30;;;;;;;;;;4940592;28;20039;-77
2023/10/05 01:14:59;;;;;;;7.75;3.40;;;;;;;;;;4869662;29;20048;-77
2023/10/05 01:17:26;;;;;;;8.65;3.50;;;;;;;;;;4868803;29;20411;-77
2023/10/05 01:19:59;;;;;;;7.72;3.40;;;;;;;;;;4870021;29;20048;-77
2023/10/05 01:22:32;;;;;;;11.05;4.38;;;;;;;;;;4869751;29;20072;-77
2023/10/05 01:24:59;;;;;;;10.32;3.80;;;;;;;;;;4871146;29;20125;-77
2023/10/05 01:27:29;;;;;;;10.30;3.27;;;;;;;;;;4869406;29;20044;-77
2023/10/05 01:29:58;;;;;;;10.80;4.30;;;;;;;;;;4869537;29;20295;-77
2023/10/05 01:32:24;;;;;;;7.55;3.60;;;;;;;;;;4853392;29;20073;-77
2023/10/05 01:34:49;;;;;;;9.68;4.18;;;;;;;;;;4854159;29;20197;-77
2023/10/05 01:37:18;;;;;;;8.98;4.00;;;;;;;;;;4867557;29;20539;-77
2023/10/05 01:39:44;;;;;;;11.35;3.72;;;;;;;;;;4870103;29;20076;-77
2023/10/05 01:42:13;;;;;;;9.35;4.10;;;;;;;;;;4868363;29;20464;-77
2023/10/05 01:44:47;;;;;;;9.70;3.45;;;;;;;;;;4869730;29;20071;-77
2023/10/05 01:47:15;;;;;;;8.40;3.28;;;;;;;;;;4853752;29;20063;-77
2023/10/05 01:49:45;;;;;;;9.40;3.60;;;;;;;;;;4916263;28;20054;-76
2023/10/05 01:52:16;;;;;;;8.90;3.53;;;;;;;;;;4956670;28;20094;-77
2023/10/05 01:54:43;;;;;;;10.02;3.88;;;;;;;;;;4957036;28;20043;-78
2023/10/05 01:57:09;;;;;;;10.57;3.70;;;;;;;;;;4963047;28;20367;-77
2023/10/05 01:59:36;;;;;;;8.57;3.38;;;;;;;;;;4958012;28;20271;-78
2023/10/05 02:02:09;;;;;;;8.85;3.50;;;;;;;;;;4962129;28;20035;-77
2023/10/05 02:04:38;;;;;;;7.40;3.17;;;;;;;;;;4963882;28;20113;-78
2023/10/05 02:07:04;;;;;;;9.05;3.63;;;;;;;;;;4962874;28;20066;-78
2023/10/05 02:09:31;;;;;;;8.48;3.33;;;;;;;;;;4963014;28;20077;-78
2023/10/05 02:12:02;;;;;;;7.80;3.50;;;;;;;;;;4971443;28;20122;-78
2023/10/05 02:14:30;;;;;;;9.30;3.45;;;;;;;;;;4973141;28;20383;-77
2023/10/05 02:16:55;;;;;;;8.60;3.08;;;;;;;;;;4972626;28;20035;-78
2023/10/05 02:19:22;;;;;;;9.20;3.35;;;;;;;;;;4947077;28;20027;-78
2023/10/05 02:21:52;;;;;;;11.60;3.80;;;;;;;;;;4946722;28;20043;-77
2023/10/05 02:24:17;;;;;;;8.50;3.38;;;;;;;;;;4948641;28;20403;-78
2023/10/05 02:27:09;;;;;;;8.38;3.72;;;;;;;;;;4939723;28;20047;-78
2023/10/05 02:29:31;;;;;;;9.55;3.67;;;;;;;;;;4958303;28;20121;-77
2023/10/05 02:34:35;;;;;;;7.20;3.22;;;;;;;;;;4976604;28;20699;-78
2023/10/05 02:37:01;;;;;;;8.38;3.40;;;;;;;;;;4940564;28;20653;-78
2023/10/05 02:39:32;;;;;;;8.38;3.20;;;;;;;;;;4945769;28;20035;-78
2023/10/05 02:41:57;;;;;;;8.65;3.03;;;;;;;;;;4957743;28;20093;-77
2023/10/05 02:44:30;;;;;;;7.70;2.97;;;;;;;;;;4955330;28;20035;-78
2023/10/05 02:46:55;;;;;;;9.60;3.17;;;;;;;;;;4957016;28;20035;-77
2023/10/05 02:49:24;;;;;;;11.02;3.35;;;;;;;;;;4957544;28;20046;-78
2023/10/05 02:51:52;;;;;;;11.95;3.70;;;;;;;;;;4956447;28;20062;-78
2023/10/05 02:54:18;;;;;;;9.40;3.25;;;;;;;;;;4940885;28;20042;-78
2023/10/05 02:56:44;;;;;;;8.20;3.25;;;;;;;;;;4956151;28;20705;-77
2023/10/05 02:59:10;;;;;;;9.20;3.13;;;;;;;;;;4946905;28;20035;-77
2023/10/05 03:01:39;;;;;;;10.73;3.55;;;;;;;;;;4945956;28;20038;-78
2023/10/05 03:06:41;;;;;;;11.27;3.92;;;;;;;;;;4970056;28;20511;-78
2023/10/05 03:09:07;;;;;;;8.23;3.40;;;;;;;;;;4956723;28;20435;-78
2023/10/05 03:11:37;;;;;;;8.90;3.20;;;;;;;;;;4945926;28;20047;-77
2023/10/05 03:14:02;;;;;;;10.65;3.35;;;;;;;;;;4955002;28;20031;-77
2023/10/05 03:16:28;;;;;;;8.77;2.70;;;;;;;;;;4939607;28;20054;-78
2023/10/05 03:18:54;;;;;;;11.93;3.45;;;;;;;;;;4971003;28;20059;-78
2023/10/05 03:21:21;;;;;;;10.30;3.50;;;;;;;;;;4954351;28;20035;-78
2023/10/05 03:23:46;;;;;;;11.40;3.40;;;;;;;;;;4957255;28;20557;-78
2023/10/05 03:26:16;;;;;;;10.07;3.10;;;;;;;;;;4945174;28;20289;-77
2023/10/05 03:28:42;;;;;;;8.27;3.22;;;;;;;;;;4961193;28;20039;-78
2023/10/05 03:31:19;;;;;;;12.02;3.80;;;;;;;;;;4939759;28;20039;-77
2023/10/05 03:33:46;;;;;;;11.23;3.40;;;;;;;;;;4963971;28;20039;-78
2023/10/05 03:36:14;;;;;;;9.88;3.35;;;;;;;;;;4955539;28;20039;-78
2023/10/05 03:38:39;;;;;;;;;;;;;;;;;;4957404;28;20034;-77
2023/10/05 03:41:08;;;;;;;11.82;3.63;;;;;;;;;;4958082;28;20270;-78
2023/10/05 03:43:34;;;;;;;9.23;3.25;;;;;;;;;;4961696;28;20046;-78
2023/10/05 03:46:08;;;;;;;8.13;3.13;;;;;;;;;;4944069;28;20403;-78
2023/10/05 03:48:42;;;;;;;10.75;3.47;;;;;;;;;;4945562;28;20506;-77
2023/10/05 03:51:15;;;;;;;9.73;3.92;;;;;;;;;;4959925;28;20038;-77
2023/10/05 03:53:48;;;;;;;9.10;3.22;;;;;;;;;;4938709;28;20384;-78
2023/10/05 03:56:17;;;;;;;8.20;3.33;;;;;;;;;;4958203;28;20692;-77
2023/10/05 03:58:43;;;;;;;10.50;3.40;;;;;;;;;;4958966;28;20151;-77
2023/10/05 04:01:11;;;;;;;9.85;3.42;;;;;;;;;;4959217;28;20039;-77
2023/10/05 04:03:38;;;;;;;10.93;3.28;;;;;;;;;;4965317;28;20034;-78
2023/10/05 04:06:14;;;;;;;8.30;3.40;;;;;;;;;;4957639;28;20047;-78
2023/10/05 04:08:41;;;;;;;8.25;3.33;;;;;;;;;;4965260;28;20558;-78
2023/10/05 04:11:06;;;;;;;10.23;3.43;;;;;;;;;;4948977;28;20125;-77
2023/10/05 04:13:33;;;;;;;10.57;3.50;;;;;;;;;;4958729;28;20826;-77
2023/10/05 04:15:59;;;;;;;10.23;3.45;;;;;;;;;;4950480;28;20093;-78
2023/10/05 04:18:29;;;;;;;11.68;3.47;;;;;;;;;;4937300;28;20093;-77
2023/10/05 04:20:57;;;;;;;8.95;3.80;;;;;;;;;;4949457;28;20614;-78
2023/10/05 04:23:26;;;;;;;8.77;3.10;;;;;;;;;;4957210;28;20448;-78
2023/10/05 04:25:54;;;;;;;9.63;3.15;;;;;;;;;;4964955;28;20058;-77
2023/10/05 04:28:31;;;;;;;8.50;3.42;;;;;;;;;;4958418;28;20842;-78
2023/10/05 04:30:57;;;;;;;9.73;3.40;;;;;;;;;;4941650;28;20047;-77
2023/10/05 04:33:26;;;;;;;9.45;3.50;;;;;;;;;;4958303;28;20046;-78
2023/10/05 04:35:52;;;;;;;9.82;3.90;;;;;;;;;;4963650;28;20133;-77
2023/10/05 04:38:22;;;;;;;8.48;3.47;;;;;;;;;;4974781;28;20154;-76
2023/10/05 04:40:51;;;;;;;9.98;4.00;;;;;;;;;;4957156;28;20039;-76
2023/10/05 04:43:19;;;;;;;13.20;3.42;;;;;;;;;;4973742;28;20047;-76
2023/10/05 04:45:45;;;;;;;9.68;3.55;;;;;;;;;;4957721;28;20058;-76
2023/10/05 04:48:12;;;;;;;8.88;3.63;;;;;;;;;;4964397;28;20129;-77
2023/10/05 04:50:41;;;;;;;15.13;4.03;;;;;;;;;;4957322;28;20038;-76
2023/10/05 04:53:09;;;;;;;10.00;3.95;;;;;;;;;;4965116;28;20055;-76
2023/10/05 04:55:42;;;;;;;9.32;3.47;;;;;;;;;;4955050;28;20083;-77
2023/10/05 04:58:31;;;;;;;9.50;3.67;;;;;;;;;;4957864;28;21073;-78
2023/10/05 05:04:15;;;;;;;9.60;3.33;;;;;;;;;;4956598;28;20581;-73
2023/10/05 05:06:20;;;;;;;10.68;3.70;;;;;;;;;;4957407;28;20067;-75
2023/10/05 05:08:46;;;;;;;8.10;3.50;;;;;;;;;;4972649;28;20051;-74
2023/10/05 05:11:20;;;;;;;11.43;4.10;;;;;;;;;;4956989;28;20046;-74
2023/10/05 05:13:47;;;;;;;10.80;3.42;;;;;;;;;;4963637;28;20446;-75
2023/10/05 05:16:15;;;;;;;11.80;3.53;;;;;;;;;;4955203;28;20368;-74
2023/10/05 05:18:41;;;;;;;7.88;3.35;;;;;;;;;;4956886;28;20724;-75
2023/10/05 05:21:12;;;;;;;10.10;3.83;;;;;;;;;;4974178;28;20064;-75
2023/10/05 05:23:42;;;;;;;11.10;3.70;;;;;;;;;;4973303;28;20047;-75
2023/10/05 05:26:09;;;;;;;8.77;3.35;;;;;;;;;;4963177;28;20112;-75
2023/10/05 05:28:37;;;;;;;11.02;3.42;;;;;;;;;;4972816;28;20134;-74
2023/10/05 05:31:07;;;;;;;8.85;3.60;;;;;;;;;;4957691;28;20031;-75
2023/10/05 05:33:36;;;;;;;8.95;3.60;;;;;;;;;;4956754;28;20067;-75
2023/10/05 05:36:06;;;;;;;8.50;3.58;;;;;;;;;;4962905;28;20046;-75
2023/10/05 05:38:33;;;;;;;12.25;3.60;;;;;;;;;;4947848;28;20046;-75
2023/10/05 05:40:58;;;;;;;9.88;3.28;;;;;;;;;;4963667;28;20113;-75
2023/10/05 05:43:24;;;;;;;9.82;3.60;;;;;;;;;;4971022;28;20205;-75
2023/10/05 05:45:51;;;;;;;9.82;3.42;;;;;;;;;;4956207;28;20400;-75
2023/10/05 05:48:17;;;;;;;9.48;3.65;;;;;;;;;;4971606;28;20062;-76
2023/10/05 05:50:43;;;;;;;12.55;4.20;;;;;;;;;;4949413;28;20055;-75
2023/10/05 05:53:13;;;;;;;11.68;3.63;;;;;;;;;;4940702;28;20521;-74
2023/10/05 05:55:52;;;;;;;10.80;4.03;;;;;;;;;;4961940;28;20142;-75
2023/10/05 05:58:18;;;;;;;10.63;3.50;;;;;;;;;;4941126;28;20058;-75
2023/10/05 06:00:46;;;;;;;13.18;4.20;;;;;;;;;;4957171;28;20061;-74
2023/10/05 06:03:11;;;;;;;10.65;3.58;;;;;;;;;;4945123;28;20062;-75
2023/10/05 06:05:37;;;;;;;9.63;3.65;;;;;;;;;;4942474;28;20031;-75
2023/10/05 06:08:10;;;;;;;9.43;3.58;;;;;;;;;;4957417;28;20035;-76
2023/10/05 06:10:36;;;;;;;8.20;3.95;;;;;;;;;;4938628;28;20404;-76
2023/10/05 06:13:01;;;;;;;13.63;3.92;;;;;;;;;;4957536;28;20038;-75
2023/10/05 06:15:29;;;;;;;9.50;4.25;;;;;;;;;;4956761;28;20087;-75
2023/10/05 06:17:54;;;;;;;10.02;4.15;;;;;;;;;;4946367;28;20046;-76
2023/10/05 06:20:20;;;;;;;13.75;4.00;;;;;;;;;;4954298;28;20547;-74
2023/10/05 06:22:46;;;;;;;9.63;3.85;;;;;;;;;;4955756;28;20061;-75
2023/10/05 06:25:12;;;;;;;10.45;3.75;;;;;;;;;;4955155;28;20109;-75
2023/10/05 06:27:38;;;;;;;14.10;3.78;;;;;;;;;;4957721;28;20509;-74
2023/10/05 06:30:13;;;;;;;13.52;3.85;;;;;;;;;;4956854;28;20030;-76
2023/10/05 06:32:39;;;;;;;10.57;3.50;;;;;;;;;;4954248;28;20510;-75
2023/10/05 06:35:08;;;;;;;11.25;3.80;;;;;;;;;;4953377;28;20043;-75
2023/10/05 06:37:38;;;;;;;11.40;3.70;;;;;;;;;;4954479;28;20396;-74
2023/10/05 06:40:25;;;;;;;12.80;3.85;;;;;;;;;;4961334;28;20035;-74
2023/10/05 06:42:51;;;;;;;10.23;3.50;;;;;;;;;;4910078;29;20122;-75
2023/10/05 06:45:19;;;;;;;10.18;3.30;;;;;;;;;;4935682;29;20035;-75
2023/10/05 06:47:45;;;;;;;;;;;;;;;;;;4920020;29;20499;-76
2023/10/05 06:50:11;;;;;;;12.02;3.70;;;;;;;;;;4903671;29;20490;-75
2023/10/05 06:52:39;;;;;;;12.02;3.78;;;;;;;;;;4934784;29;20181;-75
2023/10/05 06:55:08;;;;;;;9.88;3.50;;;;;;;;;;4921725;29;20047;-74
2023/10/05 06:57:36;;;;;;;9.10;3.72;;;;;;;;;;4934038;29;20676;-74
2023/10/05 07:03:06;;;;;;;13.48;3.13;;;;;;;;;;4910750;29;20087;-74
2023/10/05 07:05:32;;;;;;;8.75;3.22;;;;;;;;;;4917650;29;20073;-75
2023/10/05 07:07:58;;;;;;;9.05;3.20;;;;;;;;;;4919796;29;20042;-75
2023/10/05 07:10:23;;;;;;;7.00;3.10;;;;;;;;;;4910548;29;20157;-75
2023/10/05 07:12:49;;;;;;;11.07;3.22;;;;;;;;;;4916620;29;20079;-74
2023/10/05 07:15:17;;;;;;;11.32;3.38;;;;;;;;;;4932298;29;20146;-74
2023/10/05 07:17:43;;;;;;;10.73;3.58;;;;;;;;;;4916666;29;20196;-75
2023/10/05 07:20:12;;;;;;;11.30;3.67;;;;;;;;;;4955767;28;20039;-75
2023/10/05 07:22:39;;;;;;;10.43;3.75;;;;;;;;;;4955289;28;20074;-75
2023/10/05 07:25:05;;;;;;;10.00;3.08;;;;;;;;;;4938696;28;20061;-75
2023/10/05 07:27:31;;;;;;;7.82;3.13;;;;;;;;;;4955141;28;20494;-76
2023/10/05 07:29:56;;;;;;;10.07;3.60;;;;;;;;;;4936979;28;20043;-75
2023/10/05 07:32:21;;;;;;;8.95;3.28;;;;;;;;;;4963231;28;20034;-76
2023/10/05 07:34:47;;;;;;;8.45;3.00;;;;;;;;;;4958600;28;20131;-75
2023/10/05 07:37:13;;;;;;;8.32;2.75;;;;;;;;;;4958649;28;20050;-75
2023/10/05 07:39:40;;;;;;;11.45;3.10;;;;;;;;;;4958370;28;20130;-75
2023/10/05 07:42:08;;;;;;;;;;;;;;;;;;4941308;28;20061;-76
2023/10/05 07:44:37;;;;;;;10.15;3.17;;;;;;;;;;4974444;28;19925;-74
2023/10/05 07:47:05;;;;;;;9.55;3.03;;;;;;;;;;4956456;28;20030;-75
2023/10/05 07:49:36;;;;;;;8.18;2.72;;;;;;;;;;4959871;28;20533;-76
2023/10/05 07:52:03;;;;;;;13.98;3.30;;;;;;;;;;4949236;28;20038;-75
2023/10/05 07:54:30;;;;;;;10.30;3.27;;;;;;;;;;4960775;28;20553;-76
2023/10/05 07:56:56;;;;;;;7.03;2.47;;;;;;;;;;4963233;28;20093;-75
2023/10/05 07:59:23;;;;;;;8.20;2.88;;;;;;;;;;4974382;28;20438;-76
2023/10/05 08:01:52;;;;;;;7.80;2.85;;;;;;;;;;4957369;28;20404;-74
2023/10/05 08:04:18;;;;;;;12.57;3.20;;;;;;;;;;4944032;28;20085;-75
2023/10/05 08:06:45;;;;;;;8.65;2.72;;;;;;;;;;4945353;28;20134;-75
2023/10/05 08:09:20;;;;;;;8.63;3.13;;;;;;;;;;4960030;28;20110;-76
2023/10/05 08:11:56;;;;;;;10.90;3.03;;;;;;;;;;4947450;28;20050;-75
2023/10/05 08:14:24;;;;;;;8.10;2.67;;;;;;;;;;4950165;28;20097;-75
2023/10/05 08:16:50;;;;;;;6.68;2.85;;;;;;;;;;4961114;28;20348;-76
2023/10/05 08:19:27;;;;;;;9.70;3.30;;;;;;;;;;4956818;28;20039;-77
2023/10/05 08:22:00;;;;;;;8.50;2.88;;;;;;;;;;4957566;28;20128;-76
2023/10/05 08:24:32;;;;;;;9.23;2.50;;;;;;;;;;4958230;28;20035;-79
2023/10/05 08:26:58;;;;;;;7.22;2.20;;;;;;;;;;4971708;28;20122;-75
2023/10/05 08:29:24;;;;;;;8.88;2.85;;;;;;;;;;4958489;28;20570;-77
2023/10/05 08:31:50;;;;;;;11.43;2.63;;;;;;;;;;4919306;28;20505;-75
2023/10/05 08:34:22;;;;;;;6.85;2.63;;;;;;;;;;4947034;28;20030;-75
2023/10/05 08:36:55;;;;;;;11.00;3.55;;;;;;;;;;4956684;28;21059;-75
2023/10/05 08:39:26;;;;;;;11.32;2.53;;;;;;;;;;4973556;28;20042;-76
2023/10/05 08:42:06;;;;;;;7.28;2.40;;;;;;;;;;4957674;28;20384;-76
2023/10/05 08:44:38;;;;;;;10.80;3.22;;;;;;;;;;4949665;28;20034;-75
2023/10/05 08:47:08;;;;;;;8.80;2.63;;;;;;;;;;4939085;28;20042;-75
2023/10/05 08:49:34;;;;;;;5.97;2.40;;;;;;;;;;4954411;28;20035;-76
2023/10/05 08:51:59;;;;;;;8.75;2.53;;;;;;;;;;4935485;28;20469;-73
2023/10/05 08:54:28;;;;;;;6.55;2.50;;;;;;;;;;4940825;28;20057;-77
2023/10/05 08:57:09;;;;;;;7.10;2.75;;;;;;;;;;4956120;28;20050;-73
2023/10/05 08:59:34;;;;;;;7.32;2.33;;;;;;;;;;4959713;28;20049;-76
2023/10/05 09:02:04;;;;;;;6.95;2.40;;;;;;;;;;4958939;28;20502;-76
2023/10/05 09:04:43;;;;;;;8.60;2.88;;;;;;;;;;4957408;28;20094;-75
2023/10/05 09:07:08;;;;;;;5.93;2.40;;;;;;;;;;4957971;28;20162;-73
2023/10/05 09:09:53;;;;;;;9.50;2.70;;;;;;;;;;4957951;28;20497;-76
2023/10/05 09:12:35;;;;;;;7.00;2.20;;;;;;;;;;4956332;28;20117;-75
2023/10/05 09:15:27;;;;;;;7.65;2.20;;;;;;;;;;4957670;28;20522;-76
2023/10/05 09:17:58;;;;;;;8.73;2.60;;;;;;;;;;4957745;28;20140;-75
2023/10/05 09:20:31;;;;;;;7.93;2.45;;;;;;;;;;4958152;28;20031;-76
2023/10/05 09:23:00;;;;;;;8.70;2.47;;;;;;;;;;4947649;28;20058;-76
2023/10/05 09:25:32;;;;;;;9.57;2.58;;;;;;;;;;4955998;28;20044;-75
2023/10/05 09:28:07;;;;;;;6.75;2.67;;;;;;;;;;4963158;28;20046;-75
2023/10/05 09:30:33;;;;;;;11.35;2.90;;;;;;;;;;4957116;28;20031;-75
2023/10/05 09:33:10;;;;;;;10.65;2.58;;;;;;;;;;4957080;28;20039;-75
2023/10/05 09:35:36;;;;;;;7.95;2.78;;;;;;;;;;4956621;28;20053;-75
2023/10/05 09:38:02;;;;;;;8.05;2.85;;;;;;;;;;4957966;28;20486;-75
2023/10/05 09:40:28;;;;;;;6.85;2.30;;;;;;;;;;4957543;28;20380;-76
2023/10/05 09:43:00;;;;;;;7.65;2.30;;;;;;;;;;4958498;28;20081;-75
2023/10/05 09:45:29;;;;;;;8.90;2.53;;;;;;;;;;4956263;28;20550;-75
2023/10/05 09:48:02;;;;;;;11.05;2.92;;;;;;;;;;4957277;28;20946;-76
2023/10/05 09:50:29;;;;;;;7.40;2.78;;;;;;;;;;4937195;28;20041;-76
2023/10/05 09:52:56;;;;;;;9.73;2.50;;;;;;;;;;4942846;28;20557;-76
2023/10/05 09:55:22;;;;;;;8.50;2.90;;;;;;;;;;4962213;28;20034;-76
2023/10/05 09:57:57;;;;;;;7.75;2.60;;;;;;;;;;4957385;28;20090;-76
2023/10/05 10:00:30;;;;;;;9.32;2.90;;;;;;;;;;4956253;28;20039;-76
2023/10/05 10:03:00;;;;;;;8.25;2.20;;;;;;;;;;4957597;28;20773;-75
2023/10/05 10:05:42;;;;;;;9.07;2.40;;;;;;;;;;4946984;28;20475;-77
2023/10/05 10:08:23;;;;;;;11.35;3.25;;;;;;;;;;4959022;28;20045;-75
2023/10/05 10:11:08;;;;;;;6.03;2.13;;;;;;;;;;4946826;28;20331;-75
2023/10/05 10:13:38;;;;;;;8.48;2.72;;;;;;;;;;4939867;28;20066;-75
2023/10/05 10:16:21;;;;;;;7.80;2.25;;;;;;;;;;4961074;28;20434;-74
2023/10/05 10:18:57;;;;;;;6.90;2.40;;;;;;;;;;4973277;28;20066;-76
2023/10/05 10:21:32;;;;;;;6.87;2.30;;;;;;;;;;4954291;28;20038;-76
2023/10/05 10:24:06;;;;;;;11.68;2.47;;;;;;;;;;4956792;28;20125;-75
2023/10/05 10:27:07;;;;;;;11.40;2.42;;;;;;;;;;4942970;28;20038;-75
2023/10/05 10:29:45;;;;;;;9.43;2.70;;;;;;;;;;4957746;28;20058;-75
2023/10/05 10:32:19;;;;;;;7.65;2.55;;;;;;;;;;4955519;28;20094;-76
2023/10/05 10:34:52;;;;;;;8.68;2.45;;;;;;;;;;4964189;28;20047;-75
2023/10/05 10:37:48;;;;;;;6.50;2.38;;;;;;;;;;4945616;28;20073;-74
2023/10/05 10:45:40;;;;;;;;;;;;;;;;;;4957714;28;20038;-75
2023/10/05 10:48:14;;;;;;;7.40;2.33;;;;;;;;;;4954855;28;20370;-75
2023/10/05 10:50:39;;;;;;;7.70;2.35;;;;;;;;;;4946715;28;20042;-74
2023/10/05 10:53:16;;;;;;;8.40;2.45;;;;;;;;;;4946069;28;20176;-74
2023/10/05 10:55:47;;;;;;;10.60;2.83;;;;;;;;;;4961378;28;20050;-75
2023/10/05 10:58:13;;;;;;;8.50;2.40;;;;;;;;;;4956456;28;20303;-75
2023/10/05 11:01:13;;;;;;;8.15;2.42;;;;;;;;;;4947114;28;20410;-75
2023/10/05 11:03:39;;;;;;;5.93;2.40;;;;;;;;;;4957523;28;20478;-75
2023/10/05 11:06:09;;;;;;;9.10;2.75;;;;;;;;;;4955364;28;20024;-75
2023/10/05 11:08:40;;;;;;;6.38;2.30;;;;;;;;;;4938999;28;20463;-76
2023/10/05 11:11:09;;;;;;;9.13;2.50;;;;;;;;;;4955403;28;20077;-75
2023/10/05 11:13:43;;;;;;;8.63;2.40;;;;;;;;;;4955535;28;20055;-75
2023/10/05 11:16:09;;;;;;;7.63;2.20;;;;;;;;;;4953783;28;20054;-76
2023/10/05 11:18:39;;;;;;;11.43;2.88;;;;;;;;;;4941046;28;20213;-75
2023/10/05 11:21:05;;;;;;;9.60;2.72;;;;;;;;;;4955592;28;20537;-75
2023/10/05 11:23:42;;;;;;;6.82;2.50;;;;;;;;;;4939027;28;20166;-75
2023/10/05 11:26:26;;;;;;;7.45;2.45;;;;;;;;;;4961123;28;20094;-76
2023/10/05 11:28:53;;;;;;;7.10;2.30;;;;;;;;;;4955713;28;20734;-75
2023/10/05 11:31:26;;;;;;;8.40;2.60;;;;;;;;;;4955341;28;20121;-75
2023/10/05 11:33:59;;;;;;;8.00;2.50;;;;;;;;;;4959170;28;20629;-75
2023/10/05 11:36:33;;;;;;;8.55;2.50;;;;;;;;;;4960882;28;20031;-75
2023/10/05 11:39:00;;;;;;;7.53;2.63;;;;;;;;;;4955051;28;20034;-75
2023/10/05 11:41:28;;;;;;;9.57;2.67;;;;;;;;;;4958518;28;20038;-75
2023/10/05 11:43:55;;;;;;;6.10;2.60;;;;;;;;;;4955855;28;20031;-75
2023/10/05 11:46:24;;;;;;;9.23;3.07;;;;;;;;;;4961634;28;20531;-75
2023/10/05 11:48:54;;;;;;;10.60;2.35;;;;;;;;;;4947947;28;20030;-76
2023/10/05 11:51:21;;;;;;;6.88;2.65;;;;;;;;;;4954927;28;20035;-75
2023/10/05 11:53:50;;;;;;;6.13;2.47;;;;;;;;;;4960964;28;20419;-76
2023/10/05 11:56:20;;;;;;;7.28;2.50;;;;;;;;;;4953378;28;20044;-75
2023/10/05 11:58:47;;;;;;;6.82;2.58;;;;;;;;;;4955535;28;20702;-76
2023/10/05 12:01:19;;;;;;;7.95;2.70;;;;;;;;;;4976159;28;20034;-76
2023/10/05 12:03:45;;;;;;;9.00;2.55;;;;;;;;;;4955276;28;20097;-76
2023/10/05 12:06:12;;;;;;;9.10;2.60;;;;;;;;;;4939152;28;20542;-76
2023/10/05 12:08:38;;;;;;;5.95;2.17;;;;;;;;;;4955968;28;20054;-76
2023/10/05 12:11:10;;;;;;;5.75;2.25;;;;;;;;;;4967718;28;20039;-76
2023/10/05 12:13:35;;;;;;;6.38;2.38;;;;;;;;;;4946451;28;20031;-76
2023/10/05 12:16:05;;;;;;;6.63;2.15;;;;;;;;;;4956833;28;20069;-76
2023/10/05 12:18:30;;;;;;;7.65;2.50;;;;;;;;;;4941904;28;20042;-76
2023/10/05 12:20:56;;;;;;;7.00;2.40;;;;;;;;;;4963120;28;20039;-76
2023/10/05 12:23:22;;;;;;;9.73;2.67;;;;;;;;;;4964149;28;20062;-77
2023/10/05 12:25:49;;;;;;;5.40;2.30;;;;;;;;;;4975180;28;20066;-76
2023/10/05 12:28:23;;;;;;;10.18;2.80;;;;;;;;;;4958682;28;20038;-76
2023/10/05 12:30:49;;;;;;;7.38;2.33;;;;;;;;;;4973123;28;20398;-75
2023/10/05 12:33:15;;;;;;;5.07;2.40;;;;;;;;;;4958814;28;20503;-75
2023/10/05 12:35:43;;;;;;;8.02;2.42;;;;;;;;;;4957731;28;20047;-75
2023/10/05 12:38:09;;;;;;;5.80;2.70;;;;;;;;;;4956975;28;20434;-76
2023/10/05 12:40:41;;;;;;;8.88;3.10;;;;;;;;;;4963997;28;20035;-76
2023/10/05 12:43:09;;;;;;;6.50;2.50;;;;;;;;;;4964740;28;20073;-75
2023/10/05 12:45:34;;;;;;;6.95;3.08;;;;;;;;;;4958781;28;20035;-76
2023/10/05 12:48:04;;;;;;;8.93;3.72;;;;;;;;;;4977009;28;20406;-76
2023/10/05 12:50:29;;;;;;;8.48;3.30;;;;;;;;;;4940568;28;20097;-76
2023/10/05 12:52:56;;;;;;;7.28;3.25;;;;;;;;;;4957792;28;20043;-75
2023/10/05 12:55:22;;;;;;;7.32;3.30;;;;;;;;;;4957902;28;20482;-76
2023/10/05 12:57:52;;;;;;;8.25;3.20;;;;;;;;;;4957504;28;20093;-77
2023/10/05 13:00:22;;;;;;;9.55;3.08;;;;;;;;;;4958909;28;20070;-76
2023/10/05 13:02:51;;;;;;;9.07;3.45;;;;;;;;;;4956338;28;20522;-74
2023/10/05 13:05:31;;;;;;;7.28;3.20;;;;;;;;;;4973859;28;20562;-76
2023/10/05 13:08:01;;;;;;;6.47;3.42;;;;;;;;;;4972162;28;20510;-74
2023/10/05 13:10:32;;;;;;;8.15;3.42;;;;;;;;;;4956879;28;20046;-75
2023/10/05 13:13:02;;;;;;;7.68;3.30;;;;;;;;;;4963098;28;20051;-76
2023/10/05 13:15:32;;;;;;;7.88;3.63;;;;;;;;;;4973352;28;20391;-76
2023/10/05 13:18:15;;;;;;;8.05;3.28;;;;;;;;;;4956957;28;20043;-75
2023/10/05 13:20:48;;;;;;;10.85;3.92;;;;;;;;;;4957644;28;20038;-75
2023/10/05 13:23:15;;;;;;;8.82;3.60;;;;;;;;;;4973210;28;20046;-75
2023/10/05 13:25:43;;;;;;;5.72;2.47;;;;;;;;;;4963523;28;20047;-75
2023/10/05 13:28:12;;;;;;;3.97;1.50;;;;;;;;;;4962765;28;20073;-76
2023/10/05 13:30:42;;;;;;;2.67;0.90;;;;;;;;;;4956717;28;20027;-76
2023/10/05 13:33:15;;;;;;;2.72;0.90;;;;;;;;;;4958913;28;20090;-75
2023/10/05 13:35:47;;;;;;;4.25;1.33;;;;;;;;;;4955869;28;20078;-76
2023/10/05 13:38:13;;;;;;;2.45;0.90;;;;;;;;;;4961953;28;20031;-75
2023/10/05 13:40:57;;;;;;;3.28;0.85;;;;;;;;;;4963260;28;20042;-76
2023/10/05 13:43:28;;;;;;;1.33;0.52;;;;;;;;;;4957348;28;20038;-76
2023/10/05 13:45:59;;;;;;;2.25;0.70;;;;;;;;;;4956752;28;20041;-76
2023/10/05 13:48:29;;;;;;;3.80;0.70;;;;;;;;;;4963448;28;20039;-76
2023/10/05 13:50:56;;;;;;;2.50;0.95;;;;;;;;;;4958755;28;20031;-76
2023/10/05 13:53:23;;;;;;;1.80;0.60;;;;;;;;;;4942415;28;20399;-76
2023/10/05 13:55:51;;;;;;;2.47;0.70;;;;;;;;;;4946988;28;20133;-75
2023/10/05 13:58:18;;;;;;;3.15;0.70;;;;;;;;;;4957630;28;20035;-76
2023/10/05 14:00:49;;;;;;;3.13;0.70;;;;;;;;;;4956653;28;20046;-76
2023/10/05 14:03:14;;;;;;;2.05;0.70;;;;;;;;;;4956166;28;20626;-75
2023/10/05 14:05:40;;;;;;;3.20;0.80;;;;;;;;;;4958717;28;20134;-75
2023/10/05 14:08:10;;;;;;;2.78;0.88;;;;;;;;;;4955365;28;20039;-75
2023/10/05 14:10:40;;;;;;;1.67;0.75;;;;;;;;;;4947417;28;20109;-75
2023/10/05 14:13:09;;;;;;;2.63;0.80;;;;;;;;;;4955216;28;20484;-74
2023/10/05 14:15:34;;;;;;;2.15;0.70;;;;;;;;;;4956868;28;20074;-75
2023/10/05 14:18:00;;;;;;;3.42;0.80;;;;;;;;;;4945963;28;20507;-75
2023/10/05 14:20:25;;;;;;;3.05;0.80;;;;;;;;;;4957827;28;20085;-75
2023/10/05 14:22:50;;;;;;;2.70;0.85;;;;;;;;;;4953220;28;20133;-75
2023/10/05 14:25:22;;;;;;;2.50;0.80;;;;;;;;;;4957299;28;20843;-76
2023/10/05 14:27:48;;;;;;;3.13;0.98;;;;;;;;;;4957936;28;20042;-75
2023/10/05 14:30:20;;;;;;;2.92;0.80;;;;;;;;;;4958595;28;20100;-75
2023/10/05 14:32:49;;;;;;;4.60;0.98;;;;;;;;;;4939762;28;20081;-75
2023/10/05 14:35:18;;;;;;;3.30;1.02;;;;;;;;;;4961897;28;20039;-75
2023/10/05 14:37:52;;;;;;;2.50;0.80;;;;;;;;;;4954480;28;20039;-75
2023/10/05 14:40:26;;;;;;;3.58;0.98;;;;;;;;;;4961236;28;20046;-75
2023/10/05 14:42:53;;;;;;;3.90;0.88;;;;;;;;;;4939190;28;20053;-75
2023/10/05 14:45:21;;;;;;;3.33;0.70;;;;;;;;;;4963550;28;20039;-75
2023/10/05 14:47:51;;;;;;;2.92;0.85;;;;;;;;;;4956308;28;20039;-74
2023/10/05 14:50:17;;;;;;;3.33;0.80;;;;;;;;;;4937573;28;20042;-75
2023/10/05 14:52:48;;;;;;;2.80;0.80;;;;;;;;;;4971162;28;20569;-76
2023/10/05 14:55:17;;;;;;;1.95;0.70;;;;;;;;;;4954586;28;20090;-76
2023/10/05 14:57:43;;;;;;;3.78;0.98;;;;;;;;;;4955726;28;20110;-76
2023/10/05 15:00:14;;;;;;;6.07;2.03;;;;;;;;;;4941921;28;20086;-76
2023/10/05 15:02:42;;;;;;;2.90;0.93;;;;;;;;;;4939234;28;20074;-75
2023/10/05 15:05:12;;;;;;;3.83;0.80;;;;;;;;;;4956909;28;20447;-76
2023/10/05 15:07:40;;;;;;;2.70;0.80;;;;;;;;;;4961942;28;20042;-75
2023/10/05 15:10:15;;;;;;;3.50;0.70;;;;;;;;;;4971690;28;20042;-78
2023/10/05 15:12:44;;;;;;;2.58;0.70;;;;;;;;;;4956707;28;20035;-77
2023/10/05 15:15:10;;;;;;;4.20;0.82;;;;;;;;;;4943422;28;20122;-78
2023/10/05 15:17:36;;;;;;;3.53;0.70;;;;;;;;;;4956271;28;20517;-78
2023/10/05 15:20:02;;;;;;;3.97;0.90;;;;;;;;;;4972790;28;20042;-77
2023/10/05 15:22:27;;;;;;;4.40;1.20;;;;;;;;;;4957103;28;20038;-78
2023/10/05 15:24:54;;;;;;;3.72;1.08;;;;;;;;;;4941270;28;20039;-79